sensor_id;sensor_type;location;lat;lon;timestamp;P1;durP1;ratioP1;P2;durP2;ratioP2
24801;SDS011;12898;50.520;12.152;2023-07-09T00:00:46;16.52;;;12.07;;
24801;SDS011;12898;50.520;12.152;2023-07-09T00:03:15;18.55;;;12.75;;
24801;SDS011;12898;50.520;12.152;2023-07-09T00:05:48;15.93;;;10.02;;
24801;SDS011;12898;50.520;12.152;2023-07-09T00:08:25;17.70;;;10.00;;
24801;SDS011;12898;50.520;12.152;2023-07-09T00:10:57;15.48;;;10.88;;
24801;SDS011;12898;50.520;12.152;2023-07-09T00:13:23;18.05;;;10.07;;
24801;SDS011;12898;50.520;12.152;2023-07-09T00:15:51;14.85;;;10.30;;
24801;SDS011;12898;50.520;12.152;2023-07-09T00:18:25;15.07;;;10.32;;
24801;SDS011;12898;50.520;12.152;2023-07-09T00:20:51;17.38;;;10.18;;
24801;SDS011;12898;50.520;12.152;2023-07-09T00:23:17;14.45;;;10.00;;
24801;SDS011;12898;50.520;12.152;2023-07-09T00:25:45;14.73;;;11.00;;
24801;SDS011;12898;50.520;12.152;2023-07-09T00:28:15;17.17;;;9.65;;
24801;SDS011;12898;50.520;12.152;2023-07-09T00:30:43;15.70;;;10.50;;
24801;SDS011;12898;50.520;12.152;2023-07-09T00:33:11;16.73;;;10.35;;
24801;SDS011;12898;50.520;12.152;2023-07-09T00:35:41;14.50;;;10.00;;
24801;SDS011;12898;50.520;12.152;2023-07-09T00:38:14;13.85;;;9.77;;
24801;SDS011;12898;50.520;12.152;2023-07-09T00:40:47;15.20;;;9.63;;
24801;SDS011;12898;50.520;12.152;2023-07-09T00:43:25;13.23;;;8.77;;
24801;SDS011;12898;50.520;12.152;2023-07-09T00:49:02;14.25;;;10.02;;
24801;SDS011;12898;50.520;12.152;2023-07-09T00:51:31;14.40;;;9.90;;
24801;SDS011;12898;50.520;12.152;2023-07-09T00:54:03;16.33;;;10.18;;
24801;SDS011;12898;50.520;12.152;2023-07-09T00:56:44;16.33;;;10.75;;
24801;SDS011;12898;50.520;12.152;2023-07-09T00:59:12;14.05;;;9.77;;
24801;SDS011;12898;50.520;12.152;2023-07-09T01:01:43;13.25;;;9.35;;
24801;SDS011;12898;50.520;12.152;2023-07-09T01:04:12;13.40;;;8.68;;
24801;SDS011;12898;50.520;12.152;2023-07-09T01:06:41;12.45;;;8.75;;
24801;SDS011;12898;50.520;12.152;2023-07-09T01:09:10;14.85;;;9.52;;
24801;SDS011;12898;50.520;12.152;2023-07-09T01:11:37;13.23;;;9.20;;
24801;SDS011;12898;50.520;12.152;2023-07-09T01:14:06;15.25;;;10.32;;
24801;SDS011;12898;50.520;12.152;2023-07-09T01:16:39;14.25;;;10.35;;
24801;SDS011;12898;50.520;12.152;2023-07-09T01:19:13;16.55;;;10.20;;
24801;SDS011;12898;50.520;12.152;2023-07-09T01:21:41;14.63;;;10.23;;
24801;SDS011;12898;50.520;12.152;2023-07-09T01:24:14;15.98;;;10.65;;
24801;SDS011;12898;50.520;12.152;2023-07-09T01:27:03;15.80;;;9.77;;
24801;SDS011;12898;50.520;12.152;2023-07-09T01:29:32;15.27;;;9.75;;
24801;SDS011;12898;50.520;12.152;2023-07-09T01:32:00;16.10;;;10.07;;
24801;SDS011;12898;50.520;12.152;2023-07-09T01:34:28;14.73;;;9.98;;
24801;SDS011;12898;50.520;12.152;2023-07-09T01:36:55;14.35;;;9.93;;
24801;SDS011;12898;50.520;12.152;2023-07-09T01:39:21;15.20;;;10.48;;
24801;SDS011;12898;50.520;12.152;2023-07-09T01:41:47;16.10;;;10.43;;
24801;SDS011;12898;50.520;12.152;2023-07-09T01:44:13;15.52;;;10.70;;
24801;SDS011;12898;50.520;12.152;2023-07-09T01:46:39;15.70;;;10.30;;
24801;SDS011;12898;50.520;12.152;2023-07-09T01:49:07;13.95;;;9.85;;
24801;SDS011;12898;50.520;12.152;2023-07-09T01:51:34;14.75;;;9.65;;
24801;SDS011;12898;50.520;12.152;2023-07-09T01:54:01;15.73;;;10.23;;
24801;SDS011;12898;50.520;12.152;2023-07-09T01:56:27;14.70;;;10.60;;
24801;SDS011;12898;50.520;12.152;2023-07-09T01:58:54;15.50;;;10.02;;
24801;SDS011;12898;50.520;12.152;2023-07-09T02:01:29;16.58;;;9.75;;
24801;SDS011;12898;50.520;12.152;2023-07-09T02:03:58;14.55;;;9.90;;
24801;SDS011;12898;50.520;12.152;2023-07-09T02:06:24;15.48;;;10.23;;
24801;SDS011;12898;50.520;12.152;2023-07-09T02:08:50;14.85;;;9.82;;
24801;SDS011;12898;50.520;12.152;2023-07-09T02:11:16;14.05;;;10.52;;
24801;SDS011;12898;50.520;12.152;2023-07-09T02:13:41;15.32;;;10.10;;
24801;SDS011;12898;50.520;12.152;2023-07-09T02:16:07;15.68;;;10.23;;
24801;SDS011;12898;50.520;12.152;2023-07-09T02:18:33;15.10;;;10.48;;
24801;SDS011;12898;50.520;12.152;2023-07-09T02:20:59;14.98;;;10.75;;
24801;SDS011;12898;50.520;12.152;2023-07-09T02:23:26;15.43;;;10.20;;
24801;SDS011;12898;50.520;12.152;2023-07-09T02:25:52;17.52;;;10.52;;
24801;SDS011;12898;50.520;12.152;2023-07-09T02:28:18;16.17;;;10.07;;
24801;SDS011;12898;50.520;12.152;2023-07-09T02:30:43;14.25;;;10.10;;
24801;SDS011;12898;50.520;12.152;2023-07-09T02:33:09;17.42;;;11.50;;
24801;SDS011;12898;50.520;12.152;2023-07-09T02:35:35;13.82;;;9.73;;
24801;SDS011;12898;50.520;12.152;2023-07-09T02:38:01;14.57;;;10.23;;
24801;SDS011;12898;50.520;12.152;2023-07-09T02:40:28;15.18;;;9.98;;
24801;SDS011;12898;50.520;12.152;2023-07-09T02:42:53;16.10;;;9.88;;
24801;SDS011;12898;50.520;12.152;2023-07-09T02:45:19;15.18;;;10.48;;
24801;SDS011;12898;50.520;12.152;2023-07-09T02:47:45;14.90;;;9.93;;
24801;SDS011;12898;50.520;12.152;2023-07-09T02:50:12;13.52;;;9.90;;
24801;SDS011;12898;50.520;12.152;2023-07-09T02:52:37;15.73;;;10.30;;
24801;SDS011;12898;50.520;12.152;2023-07-09T02:55:03;13.85;;;9.40;;
24801;SDS011;12898;50.520;12.152;2023-07-09T02:57:29;14.38;;;9.77;;
24801;SDS011;12898;50.520;12.152;2023-07-09T02:59:55;13.82;;;10.05;;
24801;SDS011;12898;50.520;12.152;2023-07-09T03:02:21;14.82;;;10.38;;
24801;SDS011;12898;50.520;12.152;2023-07-09T03:04:46;14.35;;;10.02;;
24801;SDS011;12898;50.520;12.152;2023-07-09T03:07:12;14.45;;;9.85;;
24801;SDS011;12898;50.520;12.152;2023-07-09T03:09:37;14.77;;;10.05;;
24801;SDS011;12898;50.520;12.152;2023-07-09T03:12:03;15.68;;;10.23;;
24801;SDS011;12898;50.520;12.152;2023-07-09T03:14:29;15.25;;;9.90;;
24801;SDS011;12898;50.520;12.152;2023-07-09T03:16:55;13.43;;;10.25;;
24801;SDS011;12898;50.520;12.152;2023-07-09T03:19:21;16.58;;;10.45;;
24801;SDS011;12898;50.520;12.152;2023-07-09T03:21:47;16.13;;;10.75;;
24801;SDS011;12898;50.520;12.152;2023-07-09T03:24:13;17.25;;;10.10;;
24801;SDS011;12898;50.520;12.152;2023-07-09T03:26:43;15.02;;;9.82;;
24801;SDS011;12898;50.520;12.152;2023-07-09T03:29:10;15.05;;;10.38;;
24801;SDS011;12898;50.520;12.152;2023-07-09T03:31:36;14.13;;;10.20;;
24801;SDS011;12898;50.520;12.152;2023-07-09T03:34:02;15.45;;;10.20;;
24801;SDS011;12898;50.520;12.152;2023-07-09T03:36:28;16.17;;;9.98;;
24801;SDS011;12898;50.520;12.152;2023-07-09T03:38:55;14.27;;;10.18;;
24801;SDS011;12898;50.520;12.152;2023-07-09T03:41:20;14.80;;;10.43;;
24801;SDS011;12898;50.520;12.152;2023-07-09T03:43:46;15.20;;;9.98;;
24801;SDS011;12898;50.520;12.152;2023-07-09T03:46:15;16.90;;;10.15;;
24801;SDS011;12898;50.520;12.152;2023-07-09T03:48:40;13.85;;;10.02;;
24801;SDS011;12898;50.520;12.152;2023-07-09T03:51:06;13.52;;;10.00;;
24801;SDS011;12898;50.520;12.152;2023-07-09T03:53:32;16.88;;;10.80;;
24801;SDS011;12898;50.520;12.152;2023-07-09T03:55:57;13.05;;;9.50;;
24801;SDS011;12898;50.520;12.152;2023-07-09T03:58:25;15.13;;;10.50;;
24801;SDS011;12898;50.520;12.152;2023-07-09T04:00:51;14.65;;;10.63;;
24801;SDS011;12898;50.520;12.152;2023-07-09T04:03:19;13.93;;;10.13;;
24801;SDS011;12898;50.520;12.152;2023-07-09T04:05:46;13.85;;;10.35;;
24801;SDS011;12898;50.520;12.152;2023-07-09T04:08:13;14.77;;;10.57;;
24801;SDS011;12898;50.520;12.152;2023-07-09T04:10:39;15.68;;;10.30;;
24801;SDS011;12898;50.520;12.152;2023-07-09T04:13:05;15.52;;;10.50;;
24801;SDS011;12898;50.520;12.152;2023-07-09T04:15:31;13.25;;;9.70;;
24801;SDS011;12898;50.520;12.152;2023-07-09T04:17:57;14.18;;;9.50;;
24801;SDS011;12898;50.520;12.152;2023-07-09T04:20:23;14.98;;;10.23;;
24801;SDS011;12898;50.520;12.152;2023-07-09T04:22:49;15.02;;;10.93;;
24801;SDS011;12898;50.520;12.152;2023-07-09T04:25:14;14.13;;;9.60;;
24801;SDS011;12898;50.520;12.152;2023-07-09T04:27:40;15.05;;;9.80;;
24801;SDS011;12898;50.520;12.152;2023-07-09T04:30:10;12.82;;;9.00;;
24801;SDS011;12898;50.520;12.152;2023-07-09T04:32:39;16.20;;;10.02;;
24801;SDS011;12898;50.520;12.152;2023-07-09T04:35:08;14.68;;;9.02;;
24801;SDS011;12898;50.520;12.152;2023-07-09T04:37:36;15.43;;;9.05;;
24801;SDS011;12898;50.520;12.152;2023-07-09T04:40:03;13.57;;;8.55;;
24801;SDS011;12898;50.520;12.152;2023-07-09T04:42:31;15.23;;;9.60;;
24801;SDS011;12898;50.520;12.152;2023-07-09T04:44:57;12.75;;;9.15;;
24801;SDS011;12898;50.520;12.152;2023-07-09T04:47:23;16.13;;;9.68;;
24801;SDS011;12898;50.520;12.152;2023-07-09T04:49:49;14.55;;;9.63;;
24801;SDS011;12898;50.520;12.152;2023-07-09T04:52:14;14.27;;;9.32;;
24801;SDS011;12898;50.520;12.152;2023-07-09T04:54:40;13.40;;;9.18;;
24801;SDS011;12898;50.520;12.152;2023-07-09T04:57:09;15.90;;;9.38;;
24801;SDS011;12898;50.520;12.152;2023-07-09T04:59:36;14.70;;;9.40;;
24801;SDS011;12898;50.520;12.152;2023-07-09T05:02:02;12.80;;;9.18;;
24801;SDS011;12898;50.520;12.152;2023-07-09T05:04:29;15.32;;;9.43;;
24801;SDS011;12898;50.520;12.152;2023-07-09T05:06:56;14.10;;;9.32;;
24801;SDS011;12898;50.520;12.152;2023-07-09T05:09:22;11.75;;;8.00;;
24801;SDS011;12898;50.520;12.152;2023-07-09T05:11:48;13.60;;;8.02;;
24801;SDS011;12898;50.520;12.152;2023-07-09T05:14:14;12.27;;;8.52;;
24801;SDS011;12898;50.520;12.152;2023-07-09T05:16:40;12.88;;;8.07;;
24801;SDS011;12898;50.520;12.152;2023-07-09T05:19:09;12.55;;;8.27;;
24801;SDS011;12898;50.520;12.152;2023-07-09T05:21:35;12.38;;;8.20;;
24801;SDS011;12898;50.520;12.152;2023-07-09T05:24:00;12.57;;;8.23;;
24801;SDS011;12898;50.520;12.152;2023-07-09T05:26:26;11.65;;;8.05;;
24801;SDS011;12898;50.520;12.152;2023-07-09T05:28:52;11.77;;;7.88;;
24801;SDS011;12898;50.520;12.152;2023-07-09T05:31:21;10.90;;;7.78;;
24801;SDS011;12898;50.520;12.152;2023-07-09T05:33:47;12.85;;;8.40;;
24801;SDS011;12898;50.520;12.152;2023-07-09T05:36:13;10.68;;;7.63;;
24801;SDS011;12898;50.520;12.152;2023-07-09T05:38:41;10.60;;;7.22;;
24801;SDS011;12898;50.520;12.152;2023-07-09T05:41:08;13.18;;;7.72;;
24801;SDS011;12898;50.520;12.152;2023-07-09T05:43:34;12.43;;;8.23;;
24801;SDS011;12898;50.520;12.152;2023-07-09T05:46:01;11.80;;;7.25;;
24801;SDS011;12898;50.520;12.152;2023-07-09T05:48:29;10.75;;;6.82;;
24801;SDS011;12898;50.520;12.152;2023-07-09T05:50:55;14.63;;;8.02;;
24801;SDS011;12898;50.520;12.152;2023-07-09T05:53:21;10.38;;;6.85;;
24801;SDS011;12898;50.520;12.152;2023-07-09T05:55:47;11.75;;;7.15;;
24801;SDS011;12898;50.520;12.152;2023-07-09T05:58:13;11.27;;;6.82;;
24801;SDS011;12898;50.520;12.152;2023-07-09T06:00:39;10.15;;;6.82;;
24801;SDS011;12898;50.520;12.152;2023-07-09T06:03:06;13.48;;;6.95;;
24801;SDS011;12898;50.520;12.152;2023-07-09T06:05:33;11.77;;;7.18;;
24801;SDS011;12898;50.520;12.152;2023-07-09T06:07:59;11.18;;;6.70;;
24801;SDS011;12898;50.520;12.152;2023-07-09T06:10:24;10.25;;;6.65;;
24801;SDS011;12898;50.520;12.152;2023-07-09T06:12:50;12.60;;;7.60;;
24801;SDS011;12898;50.520;12.152;2023-07-09T06:15:16;12.82;;;6.55;;
24801;SDS011;12898;50.520;12.152;2023-07-09T06:17:42;10.52;;;6.70;;
24801;SDS011;12898;50.520;12.152;2023-07-09T06:20:08;9.82;;;6.43;;
24801;SDS011;12898;50.520;12.152;2023-07-09T06:22:34;9.80;;;6.38;;
24801;SDS011;12898;50.520;12.152;2023-07-09T06:24:59;9.65;;;6.20;;
24801;SDS011;12898;50.520;12.152;2023-07-09T06:27:25;9.73;;;6.63;;
24801;SDS011;12898;50.520;12.152;2023-07-09T06:29:51;8.88;;;5.80;;
24801;SDS011;12898;50.520;12.152;2023-07-09T06:32:17;7.63;;;4.90;;
24801;SDS011;12898;50.520;12.152;2023-07-09T06:34:43;9.27;;;5.70;;
24801;SDS011;12898;50.520;12.152;2023-07-09T06:37:09;9.75;;;5.65;;
24801;SDS011;12898;50.520;12.152;2023-07-09T06:39:35;8.98;;;5.55;;
24801;SDS011;12898;50.520;12.152;2023-07-09T06:42:01;9.25;;;5.32;;
24801;SDS011;12898;50.520;12.152;2023-07-09T06:44:26;9.13;;;5.03;;
24801;SDS011;12898;50.520;12.152;2023-07-09T06:46:52;9.40;;;5.40;;
24801;SDS011;12898;50.520;12.152;2023-07-09T06:49:17;10.07;;;5.35;;
24801;SDS011;12898;50.520;12.152;2023-07-09T06:51:43;9.02;;;5.18;;
24801;SDS011;12898;50.520;12.152;2023-07-09T06:54:09;7.90;;;5.38;;
24801;SDS011;12898;50.520;12.152;2023-07-09T06:56:37;8.32;;;5.00;;
24801;SDS011;12898;50.520;12.152;2023-07-09T06:59:03;10.15;;;5.10;;
24801;SDS011;12898;50.520;12.152;2023-07-09T07:01:29;7.38;;;4.80;;
24801;SDS011;12898;50.520;12.152;2023-07-09T07:03:55;9.60;;;5.35;;
24801;SDS011;12898;50.520;12.152;2023-07-09T07:06:20;10.02;;;5.40;;
24801;SDS011;12898;50.520;12.152;2023-07-09T07:08:46;10.05;;;5.28;;
24801;SDS011;12898;50.520;12.152;2023-07-09T07:11:12;9.90;;;5.13;;
24801;SDS011;12898;50.520;12.152;2023-07-09T07:13:38;9.13;;;5.45;;
24801;SDS011;12898;50.520;12.152;2023-07-09T07:16:06;8.30;;;4.82;;
24801;SDS011;12898;50.520;12.152;2023-07-09T07:18:34;9.45;;;5.03;;
24801;SDS011;12898;50.520;12.152;2023-07-09T07:21:00;11.27;;;5.28;;
24801;SDS011;12898;50.520;12.152;2023-07-09T07:23:26;9.75;;;5.13;;
24801;SDS011;12898;50.520;12.152;2023-07-09T07:25:52;10.85;;;5.65;;
24801;SDS011;12898;50.520;12.152;2023-07-09T07:28:17;7.82;;;4.93;;
24801;SDS011;12898;50.520;12.152;2023-07-09T07:30:44;9.57;;;5.15;;
24801;SDS011;12898;50.520;12.152;2023-07-09T07:33:10;10.43;;;5.40;;
24801;SDS011;12898;50.520;12.152;2023-07-09T07:35:38;11.02;;;5.97;;
24801;SDS011;12898;50.520;12.152;2023-07-09T07:38:06;10.65;;;5.22;;
24801;SDS011;12898;50.520;12.152;2023-07-09T07:40:32;10.45;;;5.18;;
24801;SDS011;12898;50.520;12.152;2023-07-09T07:42:57;12.07;;;5.70;;
24801;SDS011;12898;50.520;12.152;2023-07-09T07:45:23;8.93;;;5.22;;
24801;SDS011;12898;50.520;12.152;2023-07-09T07:47:49;9.35;;;5.65;;
24801;SDS011;12898;50.520;12.152;2023-07-09T07:50:17;10.25;;;5.38;;
24801;SDS011;12898;50.520;12.152;2023-07-09T07:52:43;10.80;;;5.30;;
24801;SDS011;12898;50.520;12.152;2023-07-09T07:55:08;8.82;;;5.75;;
24801;SDS011;12898;50.520;12.152;2023-07-09T07:57:35;10.20;;;5.75;;
24801;SDS011;12898;50.520;12.152;2023-07-09T08:00:00;10.73;;;5.75;;
24801;SDS011;12898;50.520;12.152;2023-07-09T08:02:26;10.75;;;5.50;;
24801;SDS011;12898;50.520;12.152;2023-07-09T08:04:52;8.57;;;5.30;;
24801;SDS011;12898;50.520;12.152;2023-07-09T08:07:18;9.05;;;5.70;;
24801;SDS011;12898;50.520;12.152;2023-07-09T08:09:44;14.38;;;6.25;;
24801;SDS011;12898;50.520;12.152;2023-07-09T08:12:11;8.32;;;5.35;;
24801;SDS011;12898;50.520;12.152;2023-07-09T08:14:39;10.75;;;5.45;;
24801;SDS011;12898;50.520;12.152;2023-07-09T08:17:06;8.93;;;5.15;;
24801;SDS011;12898;50.520;12.152;2023-07-09T08:19:43;9.43;;;5.65;;
24801;SDS011;12898;50.520;12.152;2023-07-09T08:22:18;11.15;;;5.38;;
24801;SDS011;12898;50.520;12.152;2023-07-09T08:24:47;9.90;;;5.35;;
24801;SDS011;12898;50.520;12.152;2023-07-09T08:27:16;8.40;;;4.63;;
24801;SDS011;12898;50.520;12.152;2023-07-09T08:29:42;9.73;;;5.57;;
24801;SDS011;12898;50.520;12.152;2023-07-09T08:32:08;9.60;;;5.05;;
24801;SDS011;12898;50.520;12.152;2023-07-09T08:34:37;10.85;;;5.57;;
24801;SDS011;12898;50.520;12.152;2023-07-09T08:37:04;9.88;;;4.93;;
24801;SDS011;12898;50.520;12.152;2023-07-09T08:39:30;8.38;;;5.40;;
24801;SDS011;12898;50.520;12.152;2023-07-09T08:42:00;10.48;;;5.30;;
24801;SDS011;12898;50.520;12.152;2023-07-09T08:48:04;10.05;;;5.55;;
24801;SDS011;12898;50.520;12.152;2023-07-09T08:50:37;12.07;;;5.47;;
24801;SDS011;12898;50.520;12.152;2023-07-09T08:53:13;9.25;;;5.38;;
24801;SDS011;12898;50.520;12.152;2023-07-09T08:55:46;10.27;;;5.20;;
24801;SDS011;12898;50.520;12.152;2023-07-09T08:58:25;8.77;;;5.18;;
24801;SDS011;12898;50.520;12.152;2023-07-09T09:00:55;7.95;;;5.05;;
24801;SDS011;12898;50.520;12.152;2023-07-09T09:03:28;9.55;;;5.55;;
24801;SDS011;12898;50.520;12.152;2023-07-09T09:06:08;9.52;;;5.05;;
24801;SDS011;12898;50.520;12.152;2023-07-09T09:14:15;10.10;;;5.43;;
24801;SDS011;12898;50.520;12.152;2023-07-09T09:16:49;6.22;;;4.57;;
24801;SDS011;12898;50.520;12.152;2023-07-09T09:19:25;8.60;;;5.30;;
24801;SDS011;12898;50.520;12.152;2023-07-09T09:22:02;9.43;;;5.18;;
24801;SDS011;12898;50.520;12.152;2023-07-09T09:24:38;10.00;;;5.13;;
24801;SDS011;12898;50.520;12.152;2023-07-09T09:27:18;7.30;;;4.65;;
24801;SDS011;12898;50.520;12.152;2023-07-09T09:29:44;8.30;;;5.25;;
24801;SDS011;12898;50.520;12.152;2023-07-09T09:32:26;7.30;;;4.75;;
24801;SDS011;12898;50.520;12.152;2023-07-09T09:34:54;8.05;;;4.60;;
24801;SDS011;12898;50.520;12.152;2023-07-09T09:37:25;8.55;;;5.20;;
24801;SDS011;12898;50.520;12.152;2023-07-09T09:39:54;9.98;;;5.18;;
24801;SDS011;12898;50.520;12.152;2023-07-09T09:42:20;8.27;;;5.22;;
24801;SDS011;12898;50.520;12.152;2023-07-09T09:44:48;7.57;;;4.93;;
24801;SDS011;12898;50.520;12.152;2023-07-09T09:47:14;8.10;;;4.68;;
24801;SDS011;12898;50.520;12.152;2023-07-09T09:49:41;9.45;;;4.90;;
24801;SDS011;12898;50.520;12.152;2023-07-09T09:52:14;9.48;;;4.97;;
24801;SDS011;12898;50.520;12.152;2023-07-09T09:55:17;7.45;;;5.03;;
24801;SDS011;12898;50.520;12.152;2023-07-09T09:57:36;9.68;;;5.10;;
24801;SDS011;12898;50.520;12.152;2023-07-09T10:00:02;8.90;;;4.82;;
24801;SDS011;12898;50.520;12.152;2023-07-09T10:02:38;10.27;;;5.35;;
24801;SDS011;12898;50.520;12.152;2023-07-09T10:05:14;8.75;;;5.35;;
24801;SDS011;12898;50.520;12.152;2023-07-09T10:07:59;8.88;;;4.82;;
24801;SDS011;12898;50.520;12.152;2023-07-09T10:10:33;7.10;;;4.97;;
24801;SDS011;12898;50.520;12.152;2023-07-09T10:13:02;8.52;;;5.07;;
24801;SDS011;12898;50.520;12.152;2023-07-09T10:15:41;9.43;;;4.97;;
24801;SDS011;12898;50.520;12.152;2023-07-09T10:21:10;7.75;;;4.95;;
24801;SDS011;12898;50.520;12.152;2023-07-09T10:26:32;10.35;;;5.63;;
24801;SDS011;12898;50.520;12.152;2023-07-09T10:40:47;9.20;;;5.30;;
24801;SDS011;12898;50.520;12.152;2023-07-09T10:43:22;7.82;;;5.50;;
24801;SDS011;12898;50.520;12.152;2023-07-09T10:46:11;8.90;;;4.82;;
24801;SDS011;12898;50.520;12.152;2023-07-09T10:48:51;8.32;;;5.10;;
24801;SDS011;12898;50.520;12.152;2023-07-09T10:53:57;8.85;;;5.05;;
24801;SDS011;12898;50.520;12.152;2023-07-09T10:56:33;8.65;;;5.13;;
24801;SDS011;12898;50.520;12.152;2023-07-09T10:59:19;8.82;;;5.25;;
24801;SDS011;12898;50.520;12.152;2023-07-09T11:02:15;9.20;;;5.25;;
24801;SDS011;12898;50.520;12.152;2023-07-09T11:04:56;8.55;;;5.43;;
24801;SDS011;12898;50.520;12.152;2023-07-09T11:07:27;9.93;;;5.30;;
24801;SDS011;12898;50.520;12.152;2023-07-09T11:09:58;10.05;;;5.53;;
24801;SDS011;12898;50.520;12.152;2023-07-09T11:12:29;8.43;;;5.13;;
24801;SDS011;12898;50.520;12.152;2023-07-09T11:17:38;9.77;;;5.57;;
24801;SDS011;12898;50.520;12.152;2023-07-09T11:20:20;9.77;;;5.93;;
24801;SDS011;12898;50.520;12.152;2023-07-09T11:22:52;8.02;;;5.03;;
24801;SDS011;12898;50.520;12.152;2023-07-09T11:28:03;11.65;;;5.30;;
24801;SDS011;12898;50.520;12.152;2023-07-09T11:30:31;10.63;;;5.57;;
24801;SDS011;12898;50.520;12.152;2023-07-09T11:33:02;9.63;;;5.82;;
24801;SDS011;12898;50.520;12.152;2023-07-09T11:35:45;8.45;;;5.22;;
24801;SDS011;12898;50.520;12.152;2023-07-09T11:38:21;7.93;;;5.30;;
24801;SDS011;12898;50.520;12.152;2023-07-09T11:40:50;11.00;;;5.20;;
24801;SDS011;12898;50.520;12.152;2023-07-09T11:46:06;8.45;;;5.40;;
24801;SDS011;12898;50.520;12.152;2023-07-09T11:48:40;8.68;;;5.15;;
24801;SDS011;12898;50.520;12.152;2023-07-09T11:51:08;9.13;;;5.05;;
24801;SDS011;12898;50.520;12.152;2023-07-09T11:53:44;7.18;;;5.40;;
24801;SDS011;12898;50.520;12.152;2023-07-09T11:56:20;7.50;;;5.05;;
24801;SDS011;12898;50.520;12.152;2023-07-09T11:58:50;8.32;;;5.28;;
24801;SDS011;12898;50.520;12.152;2023-07-09T12:01:21;9.40;;;5.07;;
24801;SDS011;12898;50.520;12.152;2023-07-09T12:03:51;8.13;;;5.38;;
24801;SDS011;12898;50.520;12.152;2023-07-09T12:08:48;8.50;;;5.43;;
24801;SDS011;12898;50.520;12.152;2023-07-09T12:11:29;10.20;;;5.78;;
24801;SDS011;12898;50.520;12.152;2023-07-09T12:14:02;8.20;;;5.05;;
24801;SDS011;12898;50.520;12.152;2023-07-09T12:16:32;9.05;;;5.38;;
24801;SDS011;12898;50.520;12.152;2023-07-09T12:19:01;10.45;;;6.00;;
24801;SDS011;12898;50.520;12.152;2023-07-09T12:21:27;9.90;;;5.63;;
24801;SDS011;12898;50.520;12.152;2023-07-09T12:23:53;10.77;;;5.72;;
24801;SDS011;12898;50.520;12.152;2023-07-09T12:26:21;9.27;;;5.30;;
24801;SDS011;12898;50.520;12.152;2023-07-09T12:28:53;10.63;;;5.50;;
24801;SDS011;12898;50.520;12.152;2023-07-09T12:31:27;10.32;;;5.68;;
24801;SDS011;12898;50.520;12.152;2023-07-09T12:33:55;8.85;;;5.45;;
24801;SDS011;12898;50.520;12.152;2023-07-09T12:36:23;9.18;;;6.00;;
24801;SDS011;12898;50.520;12.152;2023-07-09T12:38:52;9.35;;;5.13;;
24801;SDS011;12898;50.520;12.152;2023-07-09T12:41:27;10.40;;;6.20;;
24801;SDS011;12898;50.520;12.152;2023-07-09T12:44:00;8.27;;;5.68;;
24801;SDS011;12898;50.520;12.152;2023-07-09T12:46:26;9.63;;;5.78;;
24801;SDS011;12898;50.520;12.152;2023-07-09T12:48:56;8.10;;;5.25;;
24801;SDS011;12898;50.520;12.152;2023-07-09T12:51:24;10.10;;;5.47;;
24801;SDS011;12898;50.520;12.152;2023-07-09T12:54:00;10.63;;;5.90;;
24801;SDS011;12898;50.520;12.152;2023-07-09T12:56:37;11.93;;;6.18;;
24801;SDS011;12898;50.520;12.152;2023-07-09T12:59:07;11.00;;;5.68;;
24801;SDS011;12898;50.520;12.152;2023-07-09T13:01:47;10.00;;;5.63;;
24801;SDS011;12898;50.520;12.152;2023-07-09T13:04:36;8.50;;;5.53;;
24801;SDS011;12898;50.520;12.152;2023-07-09T13:07:03;10.70;;;5.63;;
24801;SDS011;12898;50.520;12.152;2023-07-09T13:09:30;9.95;;;6.25;;
24801;SDS011;12898;50.520;12.152;2023-07-09T13:11:56;9.18;;;5.68;;
24801;SDS011;12898;50.520;12.152;2023-07-09T13:14:24;10.68;;;6.22;;
24801;SDS011;12898;50.520;12.152;2023-07-09T13:17:05;10.18;;;5.47;;
24801;SDS011;12898;50.520;12.152;2023-07-09T13:19:34;9.63;;;5.85;;
24801;SDS011;12898;50.520;12.152;2023-07-09T13:22:00;9.50;;;5.35;;
24801;SDS011;12898;50.520;12.152;2023-07-09T13:24:27;10.70;;;5.70;;
24801;SDS011;12898;50.520;12.152;2023-07-09T13:26:55;9.25;;;5.32;;
24801;SDS011;12898;50.520;12.152;2023-07-09T13:29:24;10.55;;;5.50;;
24801;SDS011;12898;50.520;12.152;2023-07-09T13:31:51;10.43;;;5.47;;
24801;SDS011;12898;50.520;12.152;2023-07-09T13:34:19;11.60;;;5.82;;
24801;SDS011;12898;50.520;12.152;2023-07-09T13:36:51;11.07;;;5.22;;
24801;SDS011;12898;50.520;12.152;2023-07-09T13:39:21;9.68;;;5.68;;
24801;SDS011;12898;50.520;12.152;2023-07-09T13:41:47;10.50;;;5.55;;
24801;SDS011;12898;50.520;12.152;2023-07-09T13:44:19;10.38;;;5.03;;
24801;SDS011;12898;50.520;12.152;2023-07-09T13:46:54;11.70;;;5.13;;
24801;SDS011;12898;50.520;12.152;2023-07-09T13:49:21;9.57;;;5.40;;
24801;SDS011;12898;50.520;12.152;2023-07-09T13:51:52;10.60;;;5.32;;
24801;SDS011;12898;50.520;12.152;2023-07-09T13:54:26;8.23;;;4.53;;
24801;SDS011;12898;50.520;12.152;2023-07-09T13:57:03;8.45;;;5.13;;
24801;SDS011;12898;50.520;12.152;2023-07-09T13:59:31;11.32;;;5.30;;
24801;SDS011;12898;50.520;12.152;2023-07-09T14:01:58;9.40;;;4.97;;
24801;SDS011;12898;50.520;12.152;2023-07-09T14:04:25;10.15;;;5.07;;
24801;SDS011;12898;50.520;12.152;2023-07-09T14:06:53;9.27;;;4.57;;
24801;SDS011;12898;50.520;12.152;2023-07-09T14:09:19;8.70;;;5.20;;
24801;SDS011;12898;50.520;12.152;2023-07-09T14:11:52;8.35;;;4.78;;
24801;SDS011;12898;50.520;12.152;2023-07-09T14:14:21;10.20;;;4.75;;
24801;SDS011;12898;50.520;12.152;2023-07-09T14:16:50;9.95;;;5.15;;
24801;SDS011;12898;50.520;12.152;2023-07-09T14:19:18;7.53;;;4.60;;
24801;SDS011;12898;50.520;12.152;2023-07-09T14:21:46;7.68;;;4.70;;
24801;SDS011;12898;50.520;12.152;2023-07-09T14:24:23;8.13;;;4.13;;
24801;SDS011;12898;50.520;12.152;2023-07-09T14:26:52;10.05;;;4.65;;
24801;SDS011;12898;50.520;12.152;2023-07-09T14:29:20;9.25;;;4.65;;
24801;SDS011;12898;50.520;12.152;2023-07-09T14:31:47;8.80;;;4.43;;
24801;SDS011;12898;50.520;12.152;2023-07-09T14:34:24;8.68;;;4.50;;
24801;SDS011;12898;50.520;12.152;2023-07-09T14:36:54;9.63;;;4.90;;
24801;SDS011;12898;50.520;12.152;2023-07-09T14:39:23;10.00;;;5.20;;
24801;SDS011;12898;50.520;12.152;2023-07-09T14:41:51;8.40;;;4.45;;
24801;SDS011;12898;50.520;12.152;2023-07-09T14:46:57;7.00;;;4.45;;
24801;SDS011;12898;50.520;12.152;2023-07-09T14:49:25;8.95;;;5.10;;
24801;SDS011;12898;50.520;12.152;2023-07-09T14:51:52;7.85;;;4.32;;
24801;SDS011;12898;50.520;12.152;2023-07-09T14:54:28;7.30;;;4.88;;
24801;SDS011;12898;50.520;12.152;2023-07-09T14:56:56;8.80;;;4.47;;
24801;SDS011;12898;50.520;12.152;2023-07-09T14:59:23;6.80;;;4.18;;
24801;SDS011;12898;50.520;12.152;2023-07-09T15:01:49;7.28;;;4.18;;
24801;SDS011;12898;50.520;12.152;2023-07-09T15:04:32;13.68;;;5.03;;
24801;SDS011;12898;50.520;12.152;2023-07-09T15:06:59;9.27;;;4.53;;
24801;SDS011;12898;50.520;12.152;2023-07-09T15:09:25;8.88;;;4.50;;
24801;SDS011;12898;50.520;12.152;2023-07-09T15:11:54;8.98;;;4.68;;
24801;SDS011;12898;50.520;12.152;2023-07-09T15:14:25;8.02;;;4.63;;
24801;SDS011;12898;50.520;12.152;2023-07-09T15:16:52;7.20;;;4.15;;
24801;SDS011;12898;50.520;12.152;2023-07-09T15:19:19;7.80;;;4.65;;